sensor_id;sensor_type;location;lat;lon;timestamp;P1;durP1;ratioP1;P2;durP2;ratioP2
11111;SDS011;5609;49.466;8.468;2023-12-22T00:01:09;0.67;;;0.50;;
11111;SDS011;5609;49.466;8.468;2023-12-22T00:03:36;2.03;;;0.50;;
11111;SDS011;5609;49.466;8.468;2023-12-22T00:06:05;4.13;;;1.00;;
11111;SDS011;5609;49.466;8.468;2023-12-22T00:08:31;4.47;;;0.87;;
11111;SDS011;5609;49.466;8.468;2023-12-22T00:10:58;1.57;;;0.60;;
11111;SDS011;5609;49.466;8.468;2023-12-22T00:13:25;0.33;;;0.23;;
11111;SDS011;5609;49.466;8.468;2023-12-22T00:15:51;4.67;;;1.40;;
11111;SDS011;5609;49.466;8.468;2023-12-22T00:18:18;2.00;;;0.60;;
11111;SDS011;5609;49.466;8.468;2023-12-22T00:20:44;5.57;;;0.80;;
11111;SDS011;5609;49.466;8.468;2023-12-22T00:23:12;3.77;;;1.07;;
11111;SDS011;5609;49.466;8.468;2023-12-22T00:25:39;4.23;;;1.50;;
11111;SDS011;5609;49.466;8.468;2023-12-22T00:28:06;4.40;;;1.17;;
11111;SDS011;5609;49.466;8.468;2023-12-22T00:30:32;0.83;;;0.47;;
11111;SDS011;5609;49.466;8.468;2023-12-22T00:32:59;3.70;;;1.50;;
11111;SDS011;5609;49.466;8.468;2023-12-22T00:35:25;3.07;;;1.10;;
11111;SDS011;5609;49.466;8.468;2023-12-22T00:37:52;13.97;;;1.87;;
11111;SDS011;5609;49.466;8.468;2023-12-22T00:40:21;4.80;;;1.60;;
11111;SDS011;5609;49.466;8.468;2023-12-22T00:43:02;4.57;;;0.93;;
11111;SDS011;5609;49.466;8.468;2023-12-22T00:45:44;6.03;;;0.97;;
11111;SDS011;5609;49.466;8.468;2023-12-22T00:48:27;2.93;;;1.10;;
11111;SDS011;5609;49.466;8.468;2023-12-22T00:50:56;7.07;;;1.50;;
11111;SDS011;5609;49.466;8.468;2023-12-22T00:57:19;5.73;;;1.10;;
11111;SDS011;5609;49.466;8.468;2023-12-22T01:00:07;6.60;;;1.20;;
11111;SDS011;5609;49.466;8.468;2023-12-22T01:06:58;6.17;;;1.00;;
11111;SDS011;5609;49.466;8.468;2023-12-22T01:13:27;2.20;;;0.73;;
11111;SDS011;5609;49.466;8.468;2023-12-22T01:15:54;1.53;;;0.60;;
11111;SDS011;5609;49.466;8.468;2023-12-22T01:18:21;3.20;;;1.40;;
11111;SDS011;5609;49.466;8.468;2023-12-22T01:20:50;3.40;;;1.30;;
11111;SDS011;5609;49.466;8.468;2023-12-22T01:23:17;3.10;;;1.47;;
11111;SDS011;5609;49.466;8.468;2023-12-22T01:25:44;2.63;;;1.47;;
11111;SDS011;5609;49.466;8.468;2023-12-22T01:28:11;3.90;;;1.50;;
11111;SDS011;5609;49.466;8.468;2023-12-22T01:30:40;3.90;;;1.60;;
11111;SDS011;5609;49.466;8.468;2023-12-22T01:33:07;3.33;;;1.40;;
11111;SDS011;5609;49.466;8.468;2023-12-22T01:35:34;4.33;;;1.90;;
11111;SDS011;5609;49.466;8.468;2023-12-22T01:38:01;3.97;;;1.77;;
11111;SDS011;5609;49.466;8.468;2023-12-22T01:40:28;3.43;;;1.33;;
11111;SDS011;5609;49.466;8.468;2023-12-22T01:42:54;2.97;;;1.70;;
11111;SDS011;5609;49.466;8.468;2023-12-22T01:45:21;4.47;;;1.63;;
11111;SDS011;5609;49.466;8.468;2023-12-22T01:47:49;2.93;;;1.60;;
11111;SDS011;5609;49.466;8.468;2023-12-22T01:50:17;4.20;;;2.20;;
11111;SDS011;5609;49.466;8.468;2023-12-22T01:52:44;4.73;;;2.27;;
11111;SDS011;5609;49.466;8.468;2023-12-22T01:55:11;3.63;;;1.50;;
11111;SDS011;5609;49.466;8.468;2023-12-22T01:57:39;4.43;;;2.10;;
11111;SDS011;5609;49.466;8.468;2023-12-22T02:00:08;3.07;;;1.20;;
11111;SDS011;5609;49.466;8.468;2023-12-22T02:02:34;4.10;;;1.83;;
11111;SDS011;5609;49.466;8.468;2023-12-22T02:05:04;3.00;;;1.10;;
11111;SDS011;5609;49.466;8.468;2023-12-22T02:07:34;3.60;;;1.20;;
11111;SDS011;5609;49.466;8.468;2023-12-22T02:10:01;3.93;;;1.60;;
11111;SDS011;5609;49.466;8.468;2023-12-22T02:12:30;4.77;;;1.47;;
11111;SDS011;5609;49.466;8.468;2023-12-22T02:14:57;5.50;;;1.80;;
11111;SDS011;5609;49.466;8.468;2023-12-22T02:17:25;4.63;;;1.50;;
11111;SDS011;5609;49.466;8.468;2023-12-22T02:19:56;3.37;;;1.30;;
11111;SDS011;5609;49.466;8.468;2023-12-22T02:24:57;3.80;;;1.33;;
11111;SDS011;5609;49.466;8.468;2023-12-22T02:27:25;2.70;;;1.30;;
11111;SDS011;5609;49.466;8.468;2023-12-22T02:30:06;5.60;;;1.63;;
11111;SDS011;5609;49.466;8.468;2023-12-22T02:32:36;4.60;;;1.47;;
11111;SDS011;5609;49.466;8.468;2023-12-22T02:35:07;4.93;;;1.50;;
11111;SDS011;5609;49.466;8.468;2023-12-22T02:37:49;3.43;;;1.50;;
11111;SDS011;5609;49.466;8.468;2023-12-22T02:40:17;7.13;;;1.60;;
11111;SDS011;5609;49.466;8.468;2023-12-22T02:42:44;4.50;;;1.40;;
11111;SDS011;5609;49.466;8.468;2023-12-22T02:45:13;4.03;;;1.23;;
11111;SDS011;5609;49.466;8.468;2023-12-22T02:47:40;2.23;;;1.30;;
11111;SDS011;5609;49.466;8.468;2023-12-22T02:50:08;4.47;;;1.30;;
11111;SDS011;5609;49.466;8.468;2023-12-22T02:52:35;6.07;;;1.43;;
11111;SDS011;5609;49.466;8.468;2023-12-22T02:55:04;2.43;;;0.97;;
11111;SDS011;5609;49.466;8.468;2023-12-22T02:57:31;3.90;;;1.53;;
11111;SDS011;5609;49.466;8.468;2023-12-22T02:59:58;2.87;;;1.20;;
11111;SDS011;5609;49.466;8.468;2023-12-22T03:02:26;3.30;;;1.30;;
11111;SDS011;5609;49.466;8.468;2023-12-22T03:04:54;4.23;;;1.50;;
11111;SDS011;5609;49.466;8.468;2023-12-22T03:07:21;3.57;;;1.40;;
11111;SDS011;5609;49.466;8.468;2023-12-22T03:09:48;3.43;;;1.60;;
11111;SDS011;5609;49.466;8.468;2023-12-22T03:12:17;3.90;;;1.50;;
11111;SDS011;5609;49.466;8.468;2023-12-22T03:14:45;3.83;;;1.40;;
11111;SDS011;5609;49.466;8.468;2023-12-22T03:17:13;5.37;;;1.50;;
11111;SDS011;5609;49.466;8.468;2023-12-22T03:19:44;5.33;;;1.43;;
11111;SDS011;5609;49.466;8.468;2023-12-22T03:22:13;4.07;;;1.77;;
11111;SDS011;5609;49.466;8.468;2023-12-22T03:24:40;4.40;;;1.73;;
11111;SDS011;5609;49.466;8.468;2023-12-22T03:27:07;5.13;;;1.50;;
11111;SDS011;5609;49.466;8.468;2023-12-22T03:29:36;4.40;;;1.63;;
11111;SDS011;5609;49.466;8.468;2023-12-22T03:32:04;2.97;;;1.60;;
11111;SDS011;5609;49.466;8.468;2023-12-22T03:34:31;3.63;;;1.53;;
11111;SDS011;5609;49.466;8.468;2023-12-22T03:36:58;4.33;;;1.57;;
11111;SDS011;5609;49.466;8.468;2023-12-22T03:39:27;4.70;;;1.57;;
11111;SDS011;5609;49.466;8.468;2023-12-22T03:41:55;4.77;;;1.93;;
11111;SDS011;5609;49.466;8.468;2023-12-22T03:44:22;4.83;;;1.40;;
11111;SDS011;5609;49.466;8.468;2023-12-22T03:46:51;5.93;;;1.80;;
11111;SDS011;5609;49.466;8.468;2023-12-22T03:49:18;3.17;;;1.50;;
11111;SDS011;5609;49.466;8.468;2023-12-22T03:51:46;6.40;;;1.60;;
11111;SDS011;5609;49.466;8.468;2023-12-22T03:54:12;4.17;;;1.50;;
11111;SDS011;5609;49.466;8.468;2023-12-22T03:56:41;4.67;;;1.60;;
11111;SDS011;5609;49.466;8.468;2023-12-22T03:59:07;4.10;;;1.50;;
11111;SDS011;5609;49.466;8.468;2023-12-22T04:01:34;5.00;;;1.60;;
11111;SDS011;5609;49.466;8.468;2023-12-22T04:04:03;4.23;;;1.70;;
11111;SDS011;5609;49.466;8.468;2023-12-22T04:06:30;6.47;;;1.77;;
11111;SDS011;5609;49.466;8.468;2023-12-22T04:08:57;3.33;;;1.37;;
11111;SDS011;5609;49.466;8.468;2023-12-22T04:11:24;3.53;;;1.50;;
11111;SDS011;5609;49.466;8.468;2023-12-22T04:13:51;2.17;;;1.33;;
11111;SDS011;5609;49.466;8.468;2023-12-22T04:16:22;3.37;;;1.23;;
11111;SDS011;5609;49.466;8.468;2023-12-22T04:18:48;3.17;;;1.30;;
11111;SDS011;5609;49.466;8.468;2023-12-22T04:21:18;4.50;;;1.40;;
11111;SDS011;5609;49.466;8.468;2023-12-22T04:23:45;3.03;;;1.10;;
11111;SDS011;5609;49.466;8.468;2023-12-22T04:26:12;3.30;;;1.20;;
11111;SDS011;5609;49.466;8.468;2023-12-22T04:28:39;3.47;;;1.27;;
11111;SDS011;5609;49.466;8.468;2023-12-22T04:31:06;4.27;;;1.40;;
11111;SDS011;5609;49.466;8.468;2023-12-22T04:33:34;3.97;;;1.40;;
11111;SDS011;5609;49.466;8.468;2023-12-22T04:36:02;2.47;;;1.30;;
11111;SDS011;5609;49.466;8.468;2023-12-22T04:38:30;1.53;;;0.90;;
11111;SDS011;5609;49.466;8.468;2023-12-22T04:40:57;2.50;;;1.30;;
11111;SDS011;5609;49.466;8.468;2023-12-22T04:43:29;3.87;;;1.17;;
11111;SDS011;5609;49.466;8.468;2023-12-22T04:46:00;3.23;;;1.10;;
11111;SDS011;5609;49.466;8.468;2023-12-22T04:48:27;3.83;;;1.40;;
11111;SDS011;5609;49.466;8.468;2023-12-22T04:51:00;4.33;;;1.40;;
11111;SDS011;5609;49.466;8.468;2023-12-22T04:56:30;4.40;;;1.30;;
11111;SDS011;5609;49.466;8.468;2023-12-22T04:59:01;3.80;;;1.50;;
11111;SDS011;5609;49.466;8.468;2023-12-22T05:01:28;1.90;;;1.00;;
11111;SDS011;5609;49.466;8.468;2023-12-22T05:03:55;2.27;;;0.90;;
11111;SDS011;5609;49.466;8.468;2023-12-22T05:06:22;3.03;;;1.03;;
11111;SDS011;5609;49.466;8.468;2023-12-22T05:08:55;3.00;;;1.00;;
11111;SDS011;5609;49.466;8.468;2023-12-22T05:11:22;2.23;;;1.13;;
11111;SDS011;5609;49.466;8.468;2023-12-22T05:13:50;3.33;;;1.20;;
11111;SDS011;5609;49.466;8.468;2023-12-22T05:16:26;4.60;;;1.50;;
11111;SDS011;5609;49.466;8.468;2023-12-22T05:18:54;2.97;;;1.10;;
11111;SDS011;5609;49.466;8.468;2023-12-22T05:21:21;2.33;;;1.20;;
11111;SDS011;5609;49.466;8.468;2023-12-22T05:23:50;4.07;;;1.63;;
11111;SDS011;5609;49.466;8.468;2023-12-22T05:26:18;4.33;;;1.57;;
11111;SDS011;5609;49.466;8.468;2023-12-22T05:28:47;3.57;;;1.27;;
11111;SDS011;5609;49.466;8.468;2023-12-22T05:31:14;3.57;;;1.40;;
11111;SDS011;5609;49.466;8.468;2023-12-22T05:33:45;5.37;;;1.33;;
11111;SDS011;5609;49.466;8.468;2023-12-22T05:36:13;3.10;;;1.20;;
11111;SDS011;5609;49.466;8.468;2023-12-22T05:38:45;6.03;;;1.50;;
11111;SDS011;5609;49.466;8.468;2023-12-22T05:41:26;4.07;;;1.40;;
11111;SDS011;5609;49.466;8.468;2023-12-22T05:43:53;8.27;;;1.60;;
11111;SDS011;5609;49.466;8.468;2023-12-22T05:46:20;6.03;;;1.53;;
11111;SDS011;5609;49.466;8.468;2023-12-22T05:48:49;4.27;;;1.47;;
11111;SDS011;5609;49.466;8.468;2023-12-22T05:51:16;4.03;;;1.60;;
11111;SDS011;5609;49.466;8.468;2023-12-22T05:53:59;3.77;;;1.40;;
11111;SDS011;5609;49.466;8.468;2023-12-22T05:56:36;4.10;;;1.43;;
11111;SDS011;5609;49.466;8.468;2023-12-22T05:59:12;4.83;;;1.60;;
11111;SDS011;5609;49.466;8.468;2023-12-22T06:01:39;4.30;;;1.60;;
11111;SDS011;5609;49.466;8.468;2023-12-22T06:04:05;5.00;;;1.40;;
11111;SDS011;5609;49.466;8.468;2023-12-22T06:06:32;5.93;;;1.87;;
11111;SDS011;5609;49.466;8.468;2023-12-22T06:08:59;6.00;;;1.50;;
11111;SDS011;5609;49.466;8.468;2023-12-22T06:11:26;2.53;;;1.50;;
11111;SDS011;5609;49.466;8.468;2023-12-22T06:13:56;5.13;;;1.90;;
11111;SDS011;5609;49.466;8.468;2023-12-22T06:16:25;4.73;;;1.80;;
11111;SDS011;5609;49.466;8.468;2023-12-22T06:19:14;4.87;;;1.63;;
11111;SDS011;5609;49.466;8.468;2023-12-22T06:21:43;4.57;;;1.70;;
11111;SDS011;5609;49.466;8.468;2023-12-22T06:24:14;4.67;;;1.57;;
11111;SDS011;5609;49.466;8.468;2023-12-22T06:26:42;7.10;;;1.90;;
11111;SDS011;5609;49.466;8.468;2023-12-22T06:29:14;5.03;;;1.63;;
11111;SDS011;5609;49.466;8.468;2023-12-22T06:31:41;4.20;;;1.60;;
11111;SDS011;5609;49.466;8.468;2023-12-22T06:34:08;7.10;;;1.90;;
11111;SDS011;5609;49.466;8.468;2023-12-22T06:36:35;6.27;;;1.93;;
11111;SDS011;5609;49.466;8.468;2023-12-22T06:39:03;7.60;;;2.40;;
11111;SDS011;5609;49.466;8.468;2023-12-22T06:41:38;5.23;;;1.83;;
11111;SDS011;5609;49.466;8.468;2023-12-22T06:44:06;4.30;;;1.57;;
11111;SDS011;5609;49.466;8.468;2023-12-22T06:46:39;4.83;;;1.77;;
11111;SDS011;5609;49.466;8.468;2023-12-22T06:49:16;7.47;;;1.90;;
11111;SDS011;5609;49.466;8.468;2023-12-22T06:51:43;5.20;;;1.90;;
11111;SDS011;5609;49.466;8.468;2023-12-22T06:54:17;7.43;;;1.90;;
11111;SDS011;5609;49.466;8.468;2023-12-22T06:56:58;4.33;;;1.80;;
11111;SDS011;5609;49.466;8.468;2023-12-22T06:59:26;8.13;;;2.17;;
11111;SDS011;5609;49.466;8.468;2023-12-22T07:01:57;6.27;;;1.90;;
11111;SDS011;5609;49.466;8.468;2023-12-22T07:07:56;4.60;;;1.87;;
11111;SDS011;5609;49.466;8.468;2023-12-22T07:10:27;5.30;;;1.73;;
11111;SDS011;5609;49.466;8.468;2023-12-22T07:13:02;7.20;;;2.10;;
11111;SDS011;5609;49.466;8.468;2023-12-22T07:15:45;5.27;;;1.80;;
11111;SDS011;5609;49.466;8.468;2023-12-22T07:21:19;5.40;;;1.70;;
11111;SDS011;5609;49.466;8.468;2023-12-22T07:24:32;3.20;;;1.50;;
11111;SDS011;5609;49.466;8.468;2023-12-22T07:26:59;3.80;;;1.73;;
11111;SDS011;5609;49.466;8.468;2023-12-22T07:29:29;6.30;;;2.00;;
11111;SDS011;5609;49.466;8.468;2023-12-22T07:31:56;4.60;;;1.40;;
11111;SDS011;5609;49.466;8.468;2023-12-22T07:34:26;3.90;;;1.50;;
11111;SDS011;5609;49.466;8.468;2023-12-22T07:36:58;4.47;;;1.50;;
11111;SDS011;5609;49.466;8.468;2023-12-22T07:39:25;2.90;;;1.30;;
11111;SDS011;5609;49.466;8.468;2023-12-22T07:41:53;3.43;;;1.23;;
11111;SDS011;5609;49.466;8.468;2023-12-22T07:44:22;4.53;;;1.30;;
11111;SDS011;5609;49.466;8.468;2023-12-22T07:46:55;3.33;;;1.00;;
11111;SDS011;5609;49.466;8.468;2023-12-22T07:49:25;3.57;;;1.10;;
11111;SDS011;5609;49.466;8.468;2023-12-22T07:51:52;4.20;;;1.10;;
11111;SDS011;5609;49.466;8.468;2023-12-22T07:54:19;1.73;;;0.80;;
11111;SDS011;5609;49.466;8.468;2023-12-22T07:56:46;2.43;;;1.10;;
11111;SDS011;5609;49.466;8.468;2023-12-22T07:59:13;2.67;;;1.20;;
11111;SDS011;5609;49.466;8.468;2023-12-22T08:01:45;3.00;;;1.00;;
11111;SDS011;5609;49.466;8.468;2023-12-22T08:04:13;2.43;;;0.80;;
11111;SDS011;5609;49.466;8.468;2023-12-22T08:06:45;2.30;;;1.00;;
11111;SDS011;5609;49.466;8.468;2023-12-22T08:09:13;3.77;;;1.13;;
11111;SDS011;5609;49.466;8.468;2023-12-22T08:11:41;2.87;;;1.10;;
11111;SDS011;5609;49.466;8.468;2023-12-22T08:14:12;2.17;;;0.90;;
11111;SDS011;5609;49.466;8.468;2023-12-22T08:16:39;2.63;;;0.90;;
11111;SDS011;5609;49.466;8.468;2023-12-22T08:19:06;1.90;;;0.83;;
11111;SDS011;5609;49.466;8.468;2023-12-22T08:21:33;2.83;;;1.07;;
11111;SDS011;5609;49.466;8.468;2023-12-22T08:24:01;2.57;;;0.97;;
11111;SDS011;5609;49.466;8.468;2023-12-22T08:26:28;4.30;;;1.40;;
11111;SDS011;5609;49.466;8.468;2023-12-22T08:28:55;2.57;;;1.10;;
11111;SDS011;5609;49.466;8.468;2023-12-22T08:31:22;1.80;;;1.17;;
11111;SDS011;5609;49.466;8.468;2023-12-22T08:33:50;3.33;;;1.30;;
11111;SDS011;5609;49.466;8.468;2023-12-22T08:36:17;5.47;;;1.30;;
11111;SDS011;5609;49.466;8.468;2023-12-22T08:38:43;4.00;;;1.50;;
11111;SDS011;5609;49.466;8.468;2023-12-22T08:41:12;3.23;;;1.50;;
11111;SDS011;5609;49.466;8.468;2023-12-22T08:43:39;4.63;;;1.50;;
11111;SDS011;5609;49.466;8.468;2023-12-22T08:46:07;5.00;;;1.70;;
11111;SDS011;5609;49.466;8.468;2023-12-22T08:48:34;6.07;;;1.73;;
11111;SDS011;5609;49.466;8.468;2023-12-22T08:51:01;5.83;;;2.10;;
11111;SDS011;5609;49.466;8.468;2023-12-22T08:53:29;4.20;;;1.77;;
11111;SDS011;5609;49.466;8.468;2023-12-22T08:55:59;4.77;;;2.00;;
11111;SDS011;5609;49.466;8.468;2023-12-22T08:58:27;5.97;;;2.23;;
11111;SDS011;5609;49.466;8.468;2023-12-22T09:00:54;5.80;;;2.00;;
11111;SDS011;5609;49.466;8.468;2023-12-22T09:03:22;6.53;;;2.17;;
11111;SDS011;5609;49.466;8.468;2023-12-22T09:05:49;5.67;;;2.20;;
11111;SDS011;5609;49.466;8.468;2023-12-22T09:08:16;5.90;;;2.17;;
11111;SDS011;5609;49.466;8.468;2023-12-22T09:10:45;6.03;;;2.23;;
11111;SDS011;5609;49.466;8.468;2023-12-22T09:13:12;6.83;;;2.50;;
11111;SDS011;5609;49.466;8.468;2023-12-22T09:15:40;6.87;;;2.17;;
11111;SDS011;5609;49.466;8.468;2023-12-22T09:18:07;8.93;;;2.20;;
11111;SDS011;5609;49.466;8.468;2023-12-22T09:20:35;8.77;;;2.77;;
11111;SDS011;5609;49.466;8.468;2023-12-22T09:23:02;10.13;;;3.33;;
11111;SDS011;5609;49.466;8.468;2023-12-22T09:25:31;10.03;;;2.70;;
11111;SDS011;5609;49.466;8.468;2023-12-22T09:27:58;8.67;;;3.00;;
11111;SDS011;5609;49.466;8.468;2023-12-22T09:30:25;9.23;;;2.83;;
11111;SDS011;5609;49.466;8.468;2023-12-22T09:32:54;8.40;;;2.63;;
11111;SDS011;5609;49.466;8.468;2023-12-22T09:35:22;9.67;;;2.97;;
11111;SDS011;5609;49.466;8.468;2023-12-22T09:37:49;11.70;;;2.93;;
11111;SDS011;5609;49.466;8.468;2023-12-22T09:40:17;7.80;;;2.60;;
11111;SDS011;5609;49.466;8.468;2023-12-22T09:42:43;9.70;;;2.77;;
11111;SDS011;5609;49.466;8.468;2023-12-22T09:45:12;8.33;;;2.70;;
11111;SDS011;5609;49.466;8.468;2023-12-22T09:47:43;7.60;;;3.00;;
11111;SDS011;5609;49.466;8.468;2023-12-22T09:50:12;8.57;;;3.03;;
11111;SDS011;5609;49.466;8.468;2023-12-22T09:52:40;7.97;;;2.70;;
11111;SDS011;5609;49.466;8.468;2023-12-22T09:55:11;13.40;;;3.30;;
11111;SDS011;5609;49.466;8.468;2023-12-22T09:57:42;11.83;;;3.50;;
11111;SDS011;5609;49.466;8.468;2023-12-22T10:00:12;11.77;;;3.17;;
11111;SDS011;5609;49.466;8.468;2023-12-22T10:02:43;11.87;;;3.30;;
11111;SDS011;5609;49.466;8.468;2023-12-22T10:05:18;12.47;;;3.00;;
11111;SDS011;5609;49.466;8.468;2023-12-22T10:07:47;9.17;;;3.00;;
11111;SDS011;5609;49.466;8.468;2023-12-22T10:10:15;8.90;;;2.90;;
11111;SDS011;5609;49.466;8.468;2023-12-22T10:12:44;8.03;;;2.83;;
11111;SDS011;5609;49.466;8.468;2023-12-22T10:15:12;12.77;;;3.50;;
11111;SDS011;5609;49.466;8.468;2023-12-22T10:17:39;11.97;;;3.50;;
11111;SDS011;5609;49.466;8.468;2023-12-22T10:20:08;10.47;;;3.20;;
11111;SDS011;5609;49.466;8.468;2023-12-22T10:22:37;11.43;;;3.20;;
11111;SDS011;5609;49.466;8.468;2023-12-22T10:25:04;10.03;;;3.33;;
11111;SDS011;5609;49.466;8.468;2023-12-22T10:27:32;10.30;;;3.23;;
11111;SDS011;5609;49.466;8.468;2023-12-22T10:30:01;9.47;;;3.30;;
11111;SDS011;5609;49.466;8.468;2023-12-22T10:32:30;11.87;;;2.90;;
11111;SDS011;5609;49.466;8.468;2023-12-22T10:34:57;12.43;;;3.10;;
11111;SDS011;5609;49.466;8.468;2023-12-22T10:37:24;10.57;;;3.33;;
11111;SDS011;5609;49.466;8.468;2023-12-22T10:39:53;9.90;;;2.87;;
11111;SDS011;5609;49.466;8.468;2023-12-22T10:42:21;10.03;;;3.13;;
11111;SDS011;5609;49.466;8.468;2023-12-22T10:44:48;9.93;;;3.10;;
11111;SDS011;5609;49.466;8.468;2023-12-22T10:47:16;9.27;;;2.87;;
11111;SDS011;5609;49.466;8.468;2023-12-22T10:49:47;12.93;;;3.10;;
11111;SDS011;5609;49.466;8.468;2023-12-22T10:52:15;10.30;;;3.00;;
11111;SDS011;5609;49.466;8.468;2023-12-22T10:54:43;11.47;;;3.33;;
11111;SDS011;5609;49.466;8.468;2023-12-22T10:57:18;11.70;;;3.10;;
11111;SDS011;5609;49.466;8.468;2023-12-22T10:59:47;10.13;;;2.77;;
11111;SDS011;5609;49.466;8.468;2023-12-22T11:02:15;9.97;;;2.90;;
11111;SDS011;5609;49.466;8.468;2023-12-22T11:04:47;8.67;;;2.83;;
11111;SDS011;5609;49.466;8.468;2023-12-22T11:07:23;8.63;;;2.50;;
11111;SDS011;5609;49.466;8.468;2023-12-22T11:09:51;10.30;;;2.83;;
11111;SDS011;5609;49.466;8.468;2023-12-22T11:12:21;7.93;;;2.93;;
11111;SDS011;5609;49.466;8.468;2023-12-22T11:14:49;10.83;;;2.73;;
11111;SDS011;5609;49.466;8.468;2023-12-22T11:17:21;8.23;;;2.67;;
11111;SDS011;5609;49.466;8.468;2023-12-22T11:19:49;9.13;;;2.60;;
11111;SDS011;5609;49.466;8.468;2023-12-22T11:22:17;7.27;;;2.63;;
11111;SDS011;5609;49.466;8.468;2023-12-22T11:24:48;8.37;;;2.63;;
11111;SDS011;5609;49.466;8.468;2023-12-22T11:27:16;10.83;;;2.80;;
11111;SDS011;5609;49.466;8.468;2023-12-22T11:29:46;7.57;;;2.30;;
11111;SDS011;5609;49.466;8.468;2023-12-22T11:32:15;6.70;;;2.50;;
11111;SDS011;5609;49.466;8.468;2023-12-22T11:34:45;9.00;;;2.47;;
11111;SDS011;5609;49.466;8.468;2023-12-22T11:37:14;6.50;;;2.50;;
11111;SDS011;5609;49.466;8.468;2023-12-22T11:39:42;5.97;;;2.20;;
11111;SDS011;5609;49.466;8.468;2023-12-22T11:42:11;6.13;;;2.30;;
11111;SDS011;5609;49.466;8.468;2023-12-22T11:44:41;8.87;;;2.37;;
11111;SDS011;5609;49.466;8.468;2023-12-22T11:47:09;7.47;;;2.20;;
11111;SDS011;5609;49.466;8.468;2023-12-22T11:49:38;6.90;;;2.20;;
11111;SDS011;5609;49.466;8.468;2023-12-22T11:52:12;4.77;;;2.00;;
11111;SDS011;5609;49.466;8.468;2023-12-22T11:54:45;6.80;;;2.20;;
11111;SDS011;5609;49.466;8.468;2023-12-22T11:57:29;4.93;;;2.03;;
11111;SDS011;5609;49.466;8.468;2023-12-22T11:59:57;5.13;;;1.80;;
11111;SDS011;5609;49.466;8.468;2023-12-22T12:02:28;4.50;;;1.53;;
11111;SDS011;5609;49.466;8.468;2023-12-22T12:04:57;4.23;;;1.63;;
11111;SDS011;5609;49.466;8.468;2023-12-22T12:07:41;4.63;;;1.60;;
11111;SDS011;5609;49.466;8.468;2023-12-22T12:13:17;2.93;;;1.30;;
11111;SDS011;5609;49.466;8.468;2023-12-22T12:15:50;4.53;;;1.60;;
11111;SDS011;5609;49.466;8.468;2023-12-22T12:18:22;4.53;;;1.53;;
11111;SDS011;5609;49.466;8.468;2023-12-22T12:20:49;3.87;;;1.47;;
11111;SDS011;5609;49.466;8.468;2023-12-22T12:23:16;3.23;;;1.27;;
11111;SDS011;5609;49.466;8.468;2023-12-22T12:25:43;2.03;;;1.07;;
11111;SDS011;5609;49.466;8.468;2023-12-22T12:28:10;2.77;;;1.40;;
11111;SDS011;5609;49.466;8.468;2023-12-22T12:30:39;1.60;;;1.17;;
11111;SDS011;5609;49.466;8.468;2023-12-22T12:33:08;4.20;;;1.47;;
11111;SDS011;5609;49.466;8.468;2023-12-22T12:35:38;3.53;;;1.70;;
11111;SDS011;5609;49.466;8.468;2023-12-22T12:38:06;2.27;;;1.07;;
11111;SDS011;5609;49.466;8.468;2023-12-22T12:40:33;2.40;;;0.93;;
11111;SDS011;5609;49.466;8.468;2023-12-22T12:43:03;2.50;;;1.00;;
11111;SDS011;5609;49.466;8.468;2023-12-22T12:45:31;2.30;;;1.10;;
11111;SDS011;5609;49.466;8.468;2023-12-22T12:47:59;1.23;;;0.83;;
11111;SDS011;5609;49.466;8.468;2023-12-22T12:50:27;0.93;;;0.70;;
11111;SDS011;5609;49.466;8.468;2023-12-22T12:52:57;1.67;;;0.90;;
11111;SDS011;5609;49.466;8.468;2023-12-22T12:55:25;1.17;;;0.70;;
11111;SDS011;5609;49.466;8.468;2023-12-22T12:57:53;1.20;;;0.70;;
11111;SDS011;5609;49.466;8.468;2023-12-22T13:00:23;1.47;;;0.77;;
11111;SDS011;5609;49.466;8.468;2023-12-22T13:02:50;1.17;;;0.60;;
11111;SDS011;5609;49.466;8.468;2023-12-22T13:05:20;0.57;;;0.57;;
11111;SDS011;5609;49.466;8.468;2023-12-22T13:07:48;0.83;;;0.60;;
11111;SDS011;5609;49.466;8.468;2023-12-22T13:10:22;1.37;;;0.50;;
11111;SDS011;5609;49.466;8.468;2023-12-22T13:12:50;0.90;;;0.70;;
11111;SDS011;5609;49.466;8.468;2023-12-22T13:15:19;1.03;;;0.60;;
11111;SDS011;5609;49.466;8.468;2023-12-22T13:17:46;0.73;;;0.60;;
11111;SDS011;5609;49.466;8.468;2023-12-22T13:20:13;1.30;;;0.60;;
11111;SDS011;5609;49.466;8.468;2023-12-22T13:22:41;0.73;;;0.60;;
11111;SDS011;5609;49.466;8.468;2023-12-22T13:25:08;1.07;;;0.40;;
11111;SDS011;5609;49.466;8.468;2023-12-22T13:27:45;0.57;;;0.50;;
11111;SDS011;5609;49.466;8.468;2023-12-22T13:30:12;1.33;;;0.77;;
11111;SDS011;5609;49.466;8.468;2023-12-22T13:32:40;1.00;;;0.50;;
11111;SDS011;5609;49.466;8.468;2023-12-22T13:35:07;0.80;;;0.50;;
11111;SDS011;5609;49.466;8.468;2023-12-22T13:37:39;0.40;;;0.40;;
11111;SDS011;5609;49.466;8.468;2023-12-22T13:40:08;0.97;;;0.60;;
11111;SDS011;5609;49.466;8.468;2023-12-22T13:42:35;0.50;;;0.30;;
11111;SDS011;5609;49.466;8.468;2023-12-22T13:45:05;0.90;;;0.50;;
11111;SDS011;5609;49.466;8.468;2023-12-22T13:47:39;0.90;;;0.40;;
11111;SDS011;5609;49.466;8.468;2023-12-22T13:50:13;0.40;;;0.40;;
11111;SDS011;5609;49.466;8.468;2023-12-22T13:52:40;0.60;;;0.50;;
11111;SDS011;5609;49.466;8.468;2023-12-22T13:55:10;0.50;;;0.43;;
11111;SDS011;5609;49.466;8.468;2023-12-22T13:57:40;0.60;;;0.60;;
11111;SDS011;5609;49.466;8.468;2023-12-22T14:00:26;0.60;;;0.53;;
11111;SDS011;5609;49.466;8.468;2023-12-22T14:02:54;0.50;;;0.40;;
11111;SDS011;5609;49.466;8.468;2023-12-22T14:05:21;0.80;;;0.50;;
11111;SDS011;5609;49.466;8.468;2023-12-22T14:07:48;0.90;;;0.50;;
11111;SDS011;5609;49.466;8.468;2023-12-22T14:10:15;0.73;;;0.60;;
11111;SDS011;5609;49.466;8.468;2023-12-22T14:12:42;0.87;;;0.63;;
11111;SDS011;5609;49.466;8.468;2023-12-22T14:15:10;1.77;;;0.50;;
11111;SDS011;5609;49.466;8.468;2023-12-22T14:17:39;0.93;;;0.60;;
11111;SDS011;5609;49.466;8.468;2023-12-22T14:20:08;0.40;;;0.40;;
11111;SDS011;5609;49.466;8.468;2023-12-22T14:22:36;1.00;;;0.60;;
11111;SDS011;5609;49.466;8.468;2023-12-22T14:25:03;0.63;;;0.60;;
11111;SDS011;5609;49.466;8.468;2023-12-22T14:27:30;0.63;;;0.50;;
11111;SDS011;5609;49.466;8.468;2023-12-22T14:29:58;1.43;;;0.70;;
11111;SDS011;5609;49.466;8.468;2023-12-22T14:32:26;0.60;;;0.50;;
11111;SDS011;5609;49.466;8.468;2023-12-22T14:34:56;0.77;;;0.50;;
11111;SDS011;5609;49.466;8.468;2023-12-22T14:37:23;1.73;;;0.70;;
11111;SDS011;5609;49.466;8.468;2023-12-22T14:39:49;0.97;;;0.47;;
11111;SDS011;5609;49.466;8.468;2023-12-22T14:42:16;0.60;;;0.40;;
11111;SDS011;5609;49.466;8.468;2023-12-22T14:44:44;0.50;;;0.40;;
11111;SDS011;5609;49.466;8.468;2023-12-22T14:47:11;0.83;;;0.53;;
11111;SDS011;5609;49.466;8.468;2023-12-22T14:49:38;0.83;;;0.50;;
11111;SDS011;5609;49.466;8.468;2023-12-22T14:52:06;0.63;;;0.40;;
11111;SDS011;5609;49.466;8.468;2023-12-22T14:54:33;0.30;;;0.30;;
11111;SDS011;5609;49.466;8.468;2023-12-22T14:56:59;0.20;;;0.20;;
11111;SDS011;5609;49.466;8.468;2023-12-22T14:59:26;0.77;;;0.30;;
11111;SDS011;5609;49.466;8.468;2023-12-22T15:01:56;0.20;;;0.20;;
11111;SDS011;5609;49.466;8.468;2023-12-22T15:04:23;0.67;;;0.30;;
11111;SDS011;5609;49.466;8.468;2023-12-22T15:06:49;0.90;;;0.40;;
11111;SDS011;5609;49.466;8.468;2023-12-22T15:09:18;0.73;;;0.40;;
11111;SDS011;5609;49.466;8.468;2023-12-22T15:11:45;0.60;;;0.50;;
11111;SDS011;5609;49.466;8.468;2023-12-22T15:14:12;0.60;;;0.37;;
11111;SDS011;5609;49.466;8.468;2023-12-22T15:16:39;0.93;;;0.67;;
11111;SDS011;5609;49.466;8.468;2023-12-22T15:19:09;0.53;;;0.47;;
11111;SDS011;5609;49.466;8.468;2023-12-22T15:21:36;1.37;;;0.80;;
11111;SDS011;5609;49.466;8.468;2023-12-22T15:24:04;0.60;;;0.60;;
11111;SDS011;5609;49.466;8.468;2023-12-22T15:26:32;0.90;;;0.70;;
11111;SDS011;5609;49.466;8.468;2023-12-22T15:29:00;1.80;;;0.80;;
11111;SDS011;5609;49.466;8.468;2023-12-22T15:31:27;1.07;;;0.77;;
11111;SDS011;5609;49.466;8.468;2023-12-22T15:33:55;1.27;;;0.70;;
11111;SDS011;5609;49.466;8.468;2023-12-22T15:36:22;0.77;;;0.73;;
11111;SDS011;5609;49.466;8.468;2023-12-22T15:38:50;0.70;;;0.70;;